Time;durP1;ratioP1;P1;durP2;ratioP2;P2;SDS_P1;SDS_P2;PMS_P1;PMS_P2;Temp;Humidity;BMP_temperature;BMP_pressure;BME280_temperature;BME280_humidity;BME280_pressure;Samples;Min_cycle;Max_cycle;Signal;HPM_P1;HPM_P2
2024/03/16 00:01:42;;;;;;;11.40;2.53;;;13.00;99.90;;;;;;7286780;19;20267;-79
2024/03/16 00:04:07;;;;;;;18.03;2.30;;;13.10;99.90;;;;;;7287568;19;20210;-79
2024/03/16 00:06:33;;;;;;;11.97;2.67;;;13.00;99.90;;;;;;7288164;19;20195;-80
2024/03/16 00:08:59;;;;;;;10.87;2.53;;;13.00;99.90;;;;;;7286690;19;20196;-79
2024/03/16 00:11:27;;;;;;;10.07;2.60;;;13.00;99.90;;;;;;7287618;19;20646;-79
2024/03/16 00:13:52;;;;;;;12.63;2.60;;;13.00;99.90;;;;;;7286512;19;20199;-79
2024/03/16 00:16:19;;;;;;;13.47;2.70;;;12.90;99.90;;;;;;7297795;19;20207;-79
2024/03/16 00:18:44;;;;;;;12.67;2.93;;;12.90;99.90;;;;;;7308724;19;20568;-79
2024/03/16 00:21:10;;;;;;;12.20;2.53;;;12.80;99.90;;;;;;7286358;19;20200;-80
2024/03/16 00:23:36;;;;;;;10.77;2.80;;;12.70;99.90;;;;;;7287350;19;20193;-80
2024/03/16 00:26:02;;;;;;;13.77;2.70;;;12.80;99.90;;;;;;7286390;19;20656;-80
2024/03/16 00:28:28;;;;;;;13.13;2.90;;;12.80;99.90;;;;;;7286643;19;21044;-80
2024/03/16 00:30:53;;;;;;;9.63;3.17;;;12.90;99.90;;;;;;7284281;19;20208;-80
2024/03/16 00:33:19;;;;;;;10.63;2.80;;;12.90;99.90;;;;;;7285916;19;20199;-79
2024/03/16 00:35:45;;;;;;;11.10;3.20;;;12.90;99.90;;;;;;7307678;19;20204;-80
2024/03/16 00:38:10;;;;;;;8.10;3.00;;;12.90;99.90;;;;;;7284892;19;20191;-80
2024/03/16 00:40:36;;;;;;;11.93;3.70;;;12.90;99.90;;;;;;7286380;19;20215;-80
2024/03/16 00:43:02;;;;;;;15.63;3.60;;;12.90;99.90;;;;;;7285644;19;20296;-80
2024/03/16 00:45:28;;;;;;;11.47;3.83;;;12.80;99.90;;;;;;7285258;19;20218;-80
2024/03/16 00:47:56;;;;;;;11.57;3.43;;;12.90;99.90;;;;;;7286402;19;20284;-80
2024/03/16 00:50:22;;;;;;;12.10;3.77;;;12.80;99.90;;;;;;7284598;19;20188;-80
2024/03/16 00:52:47;;;;;;;9.93;3.10;;;12.80;99.90;;;;;;7307692;19;20192;-81
2024/03/16 00:55:13;;;;;;;10.93;3.53;;;12.90;99.90;;;;;;7286610;19;20214;-81
2024/03/16 00:57:39;;;;;;;10.57;3.30;;;12.90;99.90;;;;;;7285893;19;20714;-81
2024/03/16 01:00:08;;;;;;;11.53;3.90;;;12.90;99.90;;;;;;7285160;19;20200;-80
2024/03/16 01:02:34;;;;;;;11.90;3.53;;;12.90;99.90;;;;;;7285243;19;20289;-80
2024/03/16 01:05:00;;;;;;;11.43;3.47;;;12.90;99.90;;;;;;7285138;19;20205;-80
2024/03/16 01:07:26;;;;;;;10.90;3.60;;;12.80;99.90;;;;;;7284214;19;20199;-80
2024/03/16 01:09:52;;;;;;;12.17;3.40;;;12.80;99.90;;;;;;7285544;19;20671;-80
2024/03/16 01:12:17;;;;;;;14.17;3.60;;;12.80;99.90;;;;;;7306810;19;20283;-80
2024/03/16 01:14:43;;;;;;;9.97;3.40;;;12.80;99.90;;;;;;7298164;19;20193;-80
2024/03/16 01:17:09;;;;;;;11.70;3.10;;;12.80;99.90;;;;;;7284677;19;20199;-80
2024/03/16 01:19:36;;;;;;;9.60;3.20;;;12.80;99.90;;;;;;7290641;19;20254;-82
2024/03/16 01:22:02;;;;;;;8.50;2.93;;;12.80;99.90;;;;;;7300506;19;20198;-81
2024/03/16 01:24:28;;;;;;;7.27;2.97;;;12.80;99.90;;;;;;7295284;19;20252;-81
2024/03/16 01:26:54;;;;;;;8.57;2.50;;;12.90;99.90;;;;;;7297843;19;20262;-80
2024/03/16 01:29:19;;;;;;;5.60;2.57;;;12.90;99.90;;;;;;7284056;19;20708;-79
2024/03/16 01:31:45;;;;;;;7.27;2.60;;;12.90;99.90;;;;;;7305733;19;20205;-80
2024/03/16 01:34:11;;;;;;;7.40;3.23;;;12.90;99.90;;;;;;7284813;19;20189;-80
2024/03/16 01:36:37;;;;;;;9.63;3.40;;;12.90;99.90;;;;;;7284015;19;20649;-80
2024/03/16 01:39:03;;;;;;;11.27;3.83;;;12.90;99.90;;;;;;7284190;19;20598;-80
2024/03/16 01:41:28;;;;;;;10.90;4.10;;;12.80;99.90;;;;;;7283854;19;20245;-80
2024/03/16 01:44:08;;;;;;;14.73;4.30;;;12.70;99.90;;;;;;7281079;19;20180;-80
2024/03/16 01:46:34;;;;;;;10.60;3.63;;;12.60;99.90;;;;;;7281335;19;20190;-80
2024/03/16 01:49:00;;;;;;;9.47;4.20;;;12.60;99.90;;;;;;7280657;19;20187;-80
2024/03/16 01:51:29;;;;;;;12.47;4.77;;;12.70;99.90;;;;;;7280709;19;20205;-80
2024/03/16 01:53:55;;;;;;;12.00;4.40;;;12.70;99.90;;;;;;7283133;19;20186;-80
2024/03/16 01:56:21;;;;;;;12.53;4.70;;;12.70;99.90;;;;;;7282854;19;20189;-79
2024/03/16 01:58:48;;;;;;;14.53;4.73;;;12.70;99.90;;;;;;7303597;19;20206;-80
2024/03/16 02:01:14;;;;;;;15.27;5.47;;;12.80;99.90;;;;;;7283329;19;20204;-80
2024/03/16 02:03:42;;;;;;;12.30;5.43;;;12.80;99.90;;;;;;7283346;19;20187;-81
2024/03/16 02:06:07;;;;;;;14.87;6.37;;;12.80;99.90;;;;;;7285222;19;20197;-81
2024/03/16 02:08:33;;;;;;;15.80;5.83;;;12.90;99.90;;;;;;7283913;19;20592;-80
2024/03/16 02:10:59;;;;;;;17.33;6.40;;;12.90;99.90;;;;;;7282876;19;20218;-80
2024/03/16 02:13:25;;;;;;;15.57;6.03;;;12.70;99.90;;;;;;7283054;19;20215;-80
2024/03/16 02:15:51;;;;;;;16.33;6.37;;;12.70;99.90;;;;;;7283145;19;20207;-80
2024/03/16 02:18:16;;;;;;;16.20;6.50;;;12.70;99.90;;;;;;7304849;19;20547;-80
2024/03/16 02:20:42;;;;;;;17.97;6.37;;;12.60;99.90;;;;;;7284312;19;20195;-80
2024/03/16 02:23:08;;;;;;;18.30;6.90;;;12.60;99.90;;;;;;7283070;19;20203;-80
2024/03/16 02:25:33;;;;;;;16.70;6.60;;;12.70;99.90;;;;;;7282514;19;21045;-80
2024/03/16 02:27:59;;;;;;;17.30;6.30;;;12.80;99.90;;;;;;7283765;19;20755;-80
2024/03/16 02:30:25;;;;;;;16.77;6.90;;;12.70;99.90;;;;;;7281423;19;20203;-80
2024/03/16 02:32:50;;;;;;;16.70;6.33;;;12.80;99.90;;;;;;7284221;19;20194;-79
2024/03/16 02:35:16;;;;;;;16.93;6.90;;;12.70;99.90;;;;;;7305093;19;20287;-80
2024/03/16 02:37:42;;;;;;;16.90;6.83;;;12.70;99.90;;;;;;7282734;19;20215;-80
2024/03/16 02:40:11;;;;;;;16.73;6.40;;;12.80;99.90;;;;;;7282585;19;20199;-80
2024/03/16 02:42:39;;;;;;;19.27;7.63;;;12.80;99.90;;;;;;7284532;19;20202;-80
2024/03/16 02:45:05;;;;;;;24.50;7.30;;;12.80;99.90;;;;;;7282786;19;20649;-81
2024/03/16 02:47:31;;;;;;;18.33;7.00;;;12.80;99.90;;;;;;7283347;19;20198;-80
2024/03/16 02:49:57;;;;;;;17.60;7.33;;;12.70;99.90;;;;;;7282025;19;20984;-80
2024/03/16 02:52:23;;;;;;;16.63;7.20;;;12.80;99.90;;;;;;7282513;19;20276;-80
2024/03/16 02:54:49;;;;;;;21.20;7.13;;;12.70;99.90;;;;;;7294355;19;20618;-79
2024/03/16 02:57:14;;;;;;;24.37;7.90;;;12.60;99.90;;;;;;7300703;19;20198;-80
2024/03/16 02:59:40;;;;;;;17.50;7.17;;;12.60;99.90;;;;;;7282610;19;20211;-80
2024/03/16 03:02:06;;;;;;;23.17;7.83;;;12.70;99.90;;;;;;7282540;19;20200;-80
2024/03/16 03:04:32;;;;;;;17.20;7.40;;;12.80;99.90;;;;;;7282510;19;20616;-80
2024/03/16 03:06:57;;;;;;;16.67;7.47;;;12.70;99.90;;;;;;7282637;19;20197;-80
2024/03/16 03:09:26;;;;;;;16.43;7.20;;;12.60;99.90;;;;;;7285329;19;20233;-79
2024/03/16 03:11:52;;;;;;;19.10;7.93;;;12.60;99.90;;;;;;7287759;19;20222;-80
2024/03/16 03:14:17;;;;;;;18.57;6.93;;;12.50;99.90;;;;;;7312208;19;20205;-80
2024/03/16 03:16:43;;;;;;;17.80;7.40;;;12.60;99.90;;;;;;7288259;19;20191;-80
2024/03/16 03:19:09;;;;;;;17.33;7.57;;;12.60;99.90;;;;;;7286947;19;20175;-80
2024/03/16 03:21:35;;;;;;;22.93;8.00;;;12.60;99.90;;;;;;7289040;19;20246;-80
2024/03/16 03:24:03;;;;;;;19.00;7.77;;;12.60;99.90;;;;;;7288964;19;20197;-80
2024/03/16 03:26:29;;;;;;;18.37;6.93;;;12.60;99.90;;;;;;7288118;19;20229;-80
2024/03/16 03:28:55;;;;;;;19.20;7.40;;;12.60;99.90;;;;;;7287666;19;20213;-80
2024/03/16 03:31:20;;;;;;;17.47;7.73;;;12.70;99.90;;;;;;7287746;19;20198;-80
2024/03/16 03:33:46;;;;;;;21.37;7.73;;;12.70;99.90;;;;;;7311141;19;20554;-80
2024/03/16 03:36:12;;;;;;;22.40;12.33;;;12.60;99.90;;;;;;7288937;19;20194;-79
2024/03/16 03:38:38;;;;;;;22.33;12.80;;;12.50;99.90;;;;;;7287068;19;20198;-79
2024/03/16 03:41:03;;;;;;;23.73;14.00;;;12.00;99.90;;;;;;7287304;19;20193;-79
2024/03/16 03:43:30;;;;;;;23.23;14.03;;;11.70;99.90;;;;;;7288097;19;20195;-79
2024/03/16 03:45:57;;;;;;;29.00;13.90;;;11.60;99.90;;;;;;7286750;19;20189;-79
2024/03/16 03:50:49;;;;;;;17.47;11.23;;;11.00;99.90;;;;;;7298914;19;20199;-79
2024/03/16 03:53:16;;;;;;;18.13;10.40;;;10.80;99.90;;;;;;7309397;19;20186;-80
2024/03/16 03:55:43;;;;;;;15.60;9.30;;;10.80;99.90;;;;;;7287776;19;20181;-79
2024/03/16 03:58:08;;;;;;;16.70;9.37;;;10.90;99.90;;;;;;7287326;19;20701;-80
2024/03/16 04:00:34;;;;;;;18.17;8.80;;;10.90;99.90;;;;;;7286313;19;20275;-80
2024/03/16 04:03:01;;;;;;;17.57;8.23;;;10.90;99.90;;;;;;7286156;19;20198;-80
2024/03/16 04:05:27;;;;;;;20.63;8.07;;;10.90;99.90;;;;;;7287769;19;20206;-80
2024/03/16 04:07:53;;;;;;;20.33;8.00;;;10.90;99.90;;;;;;7287045;19;20176;-80
2024/03/16 04:10:19;;;;;;;17.27;8.50;;;11.00;99.90;;;;;;7300256;19;20181;-80
2024/03/16 04:12:45;;;;;;;16.40;8.93;;;11.10;99.90;;;;;;7303369;19;20185;-80
2024/03/16 04:15:11;;;;;;;17.77;8.73;;;11.10;99.90;;;;;;7286645;19;20221;-80
2024/03/16 04:17:37;;;;;;;21.67;9.63;;;11.20;99.90;;;;;;7285464;19;20202;-80
2024/03/16 04:20:12;;;;;;;19.13;9.80;;;11.20;99.90;;;;;;7284321;19;20274;-80
2024/03/16 04:22:39;;;;;;;19.33;9.20;;;11.20;99.90;;;;;;7286034;19;20657;-80
2024/03/16 04:25:07;;;;;;;22.93;9.90;;;11.30;99.90;;;;;;7287842;19;20688;-80
2024/03/16 04:27:33;;;;;;;26.17;9.77;;;11.20;99.90;;;;;;7287419;19;20199;-80
2024/03/16 04:29:58;;;;;;;20.60;9.00;;;11.20;99.90;;;;;;7283927;19;20224;-80
2024/03/16 04:32:26;;;;;;;18.83;8.50;;;11.10;99.90;;;;;;7287408;19;20199;-80
2024/03/16 04:34:55;;;;;;;17.20;8.87;;;11.00;99.90;;;;;;7286501;19;20196;-79
2024/03/16 04:37:21;;;;;;;20.23;8.90;;;10.90;99.90;;;;;;7285932;19;20666;-79
2024/03/16 04:39:47;;;;;;;23.17;8.87;;;10.90;99.90;;;;;;7309316;19;20260;-80
2024/03/16 04:42:14;;;;;;;21.80;9.57;;;11.00;99.90;;;;;;7286168;19;20656;-80
2024/03/16 04:44:40;;;;;;;21.03;9.20;;;11.00;99.90;;;;;;7287264;19;20194;-80
2024/03/16 04:47:06;;;;;;;17.00;9.13;;;11.10;99.90;;;;;;7286847;19;20596;-80
2024/03/16 04:49:32;;;;;;;19.10;9.20;;;11.10;99.90;;;;;;7285952;19;20219;-80
2024/03/16 04:51:59;;;;;;;23.93;9.53;;;11.20;99.90;;;;;;7286741;19;20197;-80
2024/03/16 04:54:25;;;;;;;18.90;9.03;;;11.30;99.90;;;;;;7286782;19;20201;-80
2024/03/16 04:56:51;;;;;;;18.13;9.33;;;11.40;99.90;;;;;;7285112;19;20621;-80
2024/03/16 04:59:17;;;;;;;18.50;10.50;;;11.30;99.90;;;;;;7307385;19;20193;-80
2024/03/16 05:01:42;;;;;;;18.53;10.00;;;11.30;99.90;;;;;;7286164;19;20194;-80
2024/03/16 05:04:08;;;;;;;21.43;9.83;;;11.40;99.90;;;;;;7286408;19;20245;-80
2024/03/16 05:06:34;;;;;;;21.07;10.60;;;11.40;99.90;;;;;;7285357;19;20189;-80
2024/03/16 05:09:05;;;;;;;18.57;10.10;;;11.40;99.90;;;;;;7284555;19;20199;-80
2024/03/16 05:11:34;;;;;;;21.40;9.97;;;11.40;99.90;;;;;;7283977;19;20297;-80
2024/03/16 05:14:02;;;;;;;20.07;9.43;;;11.50;99.90;;;;;;7286243;19;20270;-80
2024/03/16 05:16:28;;;;;;;19.20;9.47;;;11.40;99.90;;;;;;7285065;19;20233;-80
2024/03/16 05:18:53;;;;;;;21.47;9.83;;;11.50;99.90;;;;;;7284478;19;20649;-80
2024/03/16 05:21:19;;;;;;;19.63;9.43;;;11.50;99.90;;;;;;7296224;19;20604;-79
2024/03/16 05:23:45;;;;;;;17.47;9.10;;;11.60;99.90;;;;;;7305424;19;20194;-80
2024/03/16 05:26:12;;;;;;;16.50;7.60;;;11.30;99.90;;;;;;7284111;19;20248;-80
2024/03/16 05:28:41;;;;;;;15.13;7.23;;;11.00;99.90;;;;;;7284737;19;20204;-80
2024/03/16 05:31:10;;;;;;;13.60;6.00;;;10.90;99.90;;;;;;7284137;19;20198;-80
2024/03/16 05:33:36;;;;;;;12.70;6.10;;;11.00;99.90;;;;;;7293772;19;20195;-81
2024/03/16 05:36:02;;;;;;;11.93;5.57;;;11.00;99.90;;;;;;7295422;19;20201;-81
2024/03/16 05:38:28;;;;;;;15.73;6.23;;;10.90;99.90;;;;;;7286562;19;20199;-79
2024/03/16 05:40:55;;;;;;;18.90;7.10;;;10.90;99.90;;;;;;7282690;19;20275;-80
2024/03/16 05:43:21;;;;;;;12.90;6.57;;;10.90;99.90;;;;;;7292195;19;20184;-80
2024/03/16 05:45:50;;;;;;;13.37;7.00;;;11.00;99.90;;;;;;7305374;19;20203;-80
2024/03/16 05:48:17;;;;;;;14.33;8.07;;;11.00;99.90;;;;;;7283318;19;20603;-80
2024/03/16 05:50:44;;;;;;;14.93;7.43;;;10.90;99.90;;;;;;7283932;19;20552;-80
2024/03/16 05:53:11;;;;;;;16.20;8.40;;;11.00;99.90;;;;;;7284340;19;20695;-80
2024/03/16 05:55:38;;;;;;;15.27;8.63;;;11.10;99.90;;;;;;7282539;19;20195;-81
2024/03/16 05:58:05;;;;;;;19.50;9.13;;;11.10;99.90;;;;;;7282436;19;20189;-81
2024/03/16 06:00:32;;;;;;;15.47;8.23;;;11.20;99.90;;;;;;7283629;19;20193;-80
2024/03/16 06:02:59;;;;;;;19.60;10.17;;;11.20;99.90;;;;;;7283223;19;20183;-80
2024/03/16 06:05:24;;;;;;;21.07;11.53;;;11.20;99.90;;;;;;7283904;19;20186;-80
2024/03/16 06:07:50;;;;;;;18.23;9.60;;;11.20;99.90;;;;;;7285243;19;20390;-80
2024/03/16 06:10:16;;;;;;;21.23;10.30;;;11.20;99.90;;;;;;7306521;19;20196;-80
2024/03/16 06:12:42;;;;;;;17.80;9.00;;;11.20;99.90;;;;;;7284529;19;20193;-80
2024/03/16 06:15:08;;;;;;;13.70;6.57;;;11.20;99.90;;;;;;7283311;19;20188;-80
2024/03/16 06:17:34;;;;;;;13.57;5.90;;;11.30;99.90;;;;;;7283826;19;20217;-81
2024/03/16 06:20:00;;;;;;;14.47;5.37;;;11.30;99.90;;;;;;7283830;19;20664;-81
2024/03/16 06:22:26;;;;;;;12.67;5.10;;;11.40;99.90;;;;;;7281628;19;20677;-82
2024/03/16 06:24:52;;;;;;;13.40;4.57;;;11.40;99.90;;;;;;7282516;19;20189;-82
2024/03/16 06:27:21;;;;;;;10.47;3.73;;;11.50;99.90;;;;;;7304884;19;20185;-82
2024/03/16 06:29:52;;;;;;;13.90;3.63;;;11.40;99.90;;;;;;7282983;19;20554;-82
2024/03/16 06:32:20;;;;;;;10.10;3.47;;;11.40;99.90;;;;;;7282746;19;20658;-82
2024/03/16 06:34:49;;;;;;;12.50;3.30;;;11.40;99.90;;;;;;7284563;19;20214;-82
2024/03/16 06:37:17;;;;;;;12.07;3.20;;;11.30;99.90;;;;;;7283526;19;20189;-82
2024/03/16 06:39:43;;;;;;;9.50;3.10;;;11.30;99.90;;;;;;7281971;19;20540;-82
2024/03/16 06:42:11;;;;;;;14.50;3.10;;;11.10;99.90;;;;;;7282904;19;21879;-81
2024/03/16 06:44:37;;;;;;;11.43;2.67;;;11.10;99.90;;;;;;7284209;19;20209;-82
2024/03/16 06:47:05;;;;;;;7.83;3.00;;;11.20;99.90;;;;;;7289533;19;20192;-81
2024/03/16 06:49:31;;;;;;;10.17;2.60;;;11.60;99.90;;;;;;7291391;19;20198;-82
2024/03/16 06:51:57;;;;;;;8.27;1.83;;;12.60;99.90;;;;;;7291689;19;20213;-82
2024/03/16 06:54:23;;;;;;;7.07;1.60;;;13.20;99.90;;;;;;7288451;19;20195;-81
2024/03/16 06:56:48;;;;;;;8.90;1.60;;;14.40;99.90;;;;;;7312339;19;20714;-79
2024/03/16 06:59:14;;;;;;;5.33;1.40;;;15.30;99.90;;;;;;7289292;19;20206;-83
2024/03/16 07:01:40;;;;;;;7.00;1.40;;;16.30;99.90;;;;;;7290030;19;20186;-81
2024/03/16 07:04:06;;;;;;;6.17;1.27;;;17.00;99.90;;;;;;7288728;19;20189;-82
2024/03/16 07:06:31;;;;;;;7.27;1.47;;;17.60;99.90;;;;;;7287065;19;20536;-81
2024/03/16 07:09:00;;;;;;;8.10;1.20;;;17.70;99.90;;;;;;7287505;19;20229;-79
2024/03/16 07:11:25;;;;;;;6.43;1.60;;;17.10;99.90;;;;;;7289097;19;20186;-81
2024/03/16 07:13:53;;;;;;;8.77;2.00;;;16.10;99.90;;;;;;7288374;19;20181;-80
2024/03/16 07:16:21;;;;;;;7.83;1.70;;;15.50;99.90;;;;;;7304941;19;20647;-80
2024/03/16 07:18:47;;;;;;;9.20;1.63;;;15.00;99.90;;;;;;7311005;19;20274;-81
2024/03/16 07:21:15;;;;;;;9.67;1.70;;;15.40;99.90;;;;;;7289394;19;20192;-81
2024/03/16 07:23:42;;;;;;;7.33;1.40;;;15.10;99.90;;;;;;7289463;19;20785;-81
2024/03/16 07:26:08;;;;;;;5.80;1.50;;;15.30;99.90;;;;;;7289187;19;20667;-83
2024/03/16 07:28:33;;;;;;;6.03;1.30;;;16.50;99.90;;;;;;7287808;19;20191;-82
2024/03/16 07:30:59;;;;;;;10.93;1.20;;;17.20;99.90;;;;;;7288007;19;20302;-81
2024/03/16 07:33:25;;;;;;;8.97;1.23;;;17.20;99.90;;;;;;7287970;19;20200;-84
2024/03/16 07:35:51;;;;;;;8.17;0.97;;;17.40;99.90;;;;;;7289662;19;20209;-82
2024/03/16 07:38:17;;;;;;;5.10;1.20;;;17.60;99.90;;;;;;7310308;19;20195;-82
2024/03/16 07:40:44;;;;;;;3.57;0.80;;;18.60;99.90;;;;;;7286780;19;20188;-84
2024/03/16 07:43:09;;;;;;;7.50;0.83;;;17.90;99.90;;;;;;7286043;19;20208;-81
2024/03/16 07:45:40;;;;;;;5.47;1.00;;;17.10;99.90;;;;;;7282619;19;20216;-81
2024/03/16 07:48:06;;;;;;;6.27;1.00;;;16.50;99.90;;;;;;7286067;19;20947;-81
2024/03/16 07:50:32;;;;;;;7.40;1.20;;;15.50;99.90;;;;;;7286719;19;20234;-80
2024/03/16 07:52:58;;;;;;;5.93;0.97;;;14.60;99.90;;;;;;7285791;19;20200;-80
2024/03/16 07:55:24;;;;;;;9.07;1.53;;;13.90;99.90;;;;;;7281319;19;20224;-79
2024/03/16 07:57:50;;;;;;;9.50;1.47;;;13.50;99.90;;;;;;7299177;19;20544;-80
2024/03/16 08:00:16;;;;;;;10.03;1.60;;;13.30;99.90;;;;;;7307794;19;20265;-79
2024/03/16 08:02:41;;;;;;;6.50;1.40;;;13.10;99.90;;;;;;7285957;19;20199;-80
2024/03/16 08:05:11;;;;;;;8.03;1.47;;;12.70;99.90;;;;;;7286376;19;20205;-80
2024/03/16 08:07:39;;;;;;;9.03;1.70;;;12.90;99.90;;;;;;7286924;19;20608;-81
2024/03/16 08:10:05;;;;;;;5.63;1.67;;;13.00;99.90;;;;;;7286849;19;20211;-81
2024/03/16 08:12:31;;;;;;;6.73;1.30;;;12.90;99.90;;;;;;7286388;19;20206;-82
2024/03/16 08:14:57;;;;;;;12.40;2.00;;;12.80;99.90;;;;;;7287862;19;20199;-80
2024/03/16 08:17:23;;;;;;;10.90;1.57;;;12.60;99.90;;;;;;7287320;19;20192;-81
2024/03/16 08:19:48;;;;;;;8.47;1.50;;;12.60;99.90;;;;;;7308600;19;20214;-81
2024/03/16 08:22:14;;;;;;;9.77;1.77;;;12.80;99.90;;;;;;7287871;19;20202;-81
2024/03/16 08:24:41;;;;;;;12.27;2.40;;;12.80;99.90;;;;;;7289547;19;20191;-80
2024/03/16 08:27:07;;;;;;;6.90;1.53;;;12.90;99.90;;;;;;7287325;19;20343;-79
2024/03/16 08:29:32;;;;;;;6.53;1.43;;;12.90;99.90;;;;;;7286247;19;20264;-79
2024/03/16 08:31:58;;;;;;;10.40;2.50;;;13.00;99.90;;;;;;7287010;19;20697;-80
2024/03/16 08:34:25;;;;;;;8.73;2.43;;;13.20;99.90;;;;;;7286443;19;20183;-79
2024/03/16 08:36:51;;;;;;;11.20;1.80;;;13.30;99.90;;;;;;7294354;19;20195;-79
2024/03/16 08:39:17;;;;;;;6.20;1.40;;;12.80;99.90;;;;;;7306500;19;20227;-81
2024/03/16 08:41:42;;;;;;;5.17;1.13;;;12.10;99.90;;;;;;7286814;19;20318;-82
2024/03/16 08:44:08;;;;;;;7.63;1.27;;;11.60;99.90;;;;;;7286750;19;20217;-81
2024/03/16 08:46:34;;;;;;;9.57;1.43;;;11.50;99.90;;;;;;7286111;19;20192;-82
2024/03/16 08:49:00;;;;;;;6.80;1.30;;;11.40;99.90;;;;;;7284947;19;20193;-81
2024/03/16 08:51:25;;;;;;;9.13;1.57;;;11.10;99.90;;;;;;7284454;19;20185;-81
2024/03/16 08:53:52;;;;;;;7.37;1.33;;;11.10;99.90;;;;;;7287634;19;20262;-82
2024/03/16 08:56:18;;;;;;;7.63;1.40;;;11.30;99.90;;;;;;7307168;19;20189;-80
2024/03/16 08:58:43;;;;;;;6.30;1.17;;;11.60;99.90;;;;;;7285054;19;20263;-80
2024/03/16 09:01:09;;;;;;;11.33;1.83;;;11.90;99.90;;;;;;7285429;19;20944;-80
2024/03/16 09:03:35;;;;;;;7.63;1.27;;;12.10;99.90;;;;;;7284321;19;20201;-81
2024/03/16 09:06:01;;;;;;;10.17;1.90;;;12.30;99.90;;;;;;7285157;19;20746;-82
2024/03/16 09:08:28;;;;;;;5.60;1.80;;;12.50;99.90;;;;;;7282651;19;20204;-80
2024/03/16 09:10:54;;;;;;;9.83;2.30;;;12.60;99.90;;;;;;7283445;19;20185;-79
2024/03/16 09:13:20;;;;;;;10.67;1.77;;;12.80;99.90;;;;;;7301552;19;20538;-79
2024/03/16 09:15:45;;;;;;;6.17;1.50;;;13.00;99.90;;;;;;7295608;19;20295;-80
2024/03/16 09:18:12;;;;;;;8.20;1.57;;;13.30;99.90;;;;;;7284064;19;20588;-80
2024/03/16 09:20:43;;;;;;;6.77;1.63;;;13.70;99.90;;;;;;7285245;19;20186;-80
2024/03/16 09:23:09;;;;;;;6.30;1.33;;;14.20;99.90;;;;;;7283923;19;20188;-80
2024/03/16 09:25:36;;;;;;;8.07;1.00;;;14.60;99.90;;;;;;7285008;19;20183;-80
2024/03/16 09:28:02;;;;;;;7.70;2.07;;;14.70;99.90;;;;;;7283288;19;20191;-83
2024/03/16 09:30:28;;;;;;;8.50;1.53;;;15.00;99.90;;;;;;7283861;19;20221;-82
2024/03/16 09:32:53;;;;;;;5.87;1.37;;;15.30;99.90;;;;;;7282517;19;20185;-81
2024/03/16 09:35:19;;;;;;;6.63;1.60;;;15.50;99.90;;;;;;7305742;19;20183;-80
2024/03/16 09:37:45;;;;;;;5.37;1.20;;;15.60;99.90;;;;;;7283890;19;20193;-81
2024/03/16 09:40:13;;;;;;;3.03;0.93;;;15.50;99.90;;;;;;7283352;19;20562;-79
2024/03/16 09:42:39;;;;;;;3.30;1.27;;;15.60;99.90;;;;;;7284153;19;20193;-79
2024/03/16 09:45:17;;;;;;;1.97;1.10;;;15.40;99.90;;;;;;7282868;19;20199;-79
2024/03/16 09:47:45;;;;;;;3.07;1.60;;;14.70;99.90;;;;;;7283504;19;20194;-80
2024/03/16 09:50:13;;;;;;;3.37;1.30;;;14.70;99.90;;;;;;7284076;19;20258;-80
2024/03/16 09:52:42;;;;;;;1.80;0.60;;;15.00;99.90;;;;;;7282484;19;20530;-80
2024/03/16 09:55:09;;;;;;;5.60;0.90;;;14.90;99.90;;;;;;7282964;19;20348;-80
2024/03/16 09:57:38;;;;;;;2.23;0.60;;;14.90;99.90;;;;;;7282617;19;20201;-81
2024/03/16 10:00:10;;;;;;;2.23;0.63;;;14.70;99.90;;;;;;7282754;19;20668;-80
2024/03/16 10:02:39;;;;;;;2.33;0.60;;;14.40;99.90;;;;;;7284686;19;20188;-81
2024/03/16 10:05:11;;;;;;;3.37;0.70;;;14.10;99.90;;;;;;7282561;19;20203;-80
2024/03/16 10:07:40;;;;;;;3.00;0.53;;;13.80;99.90;;;;;;7283295;19;20194;-81
2024/03/16 10:10:10;;;;;;;2.07;0.57;;;13.60;99.90;;;;;;7282734;19;20723;-80
2024/03/16 10:12:40;;;;;;;1.80;0.53;;;13.30;99.90;;;;;;7283091;19;20222;-81
2024/03/16 10:15:15;;;;;;;3.90;0.70;;;13.10;99.90;;;;;;7283313;19;20208;-80
2024/03/16 10:17:41;;;;;;;3.60;0.90;;;13.00;99.90;;;;;;7283111;19;20557;-80
2024/03/16 10:20:16;;;;;;;3.63;1.00;;;13.00;99.90;;;;;;7287782;19;20186;-80
2024/03/16 10:22:44;;;;;;;8.60;2.83;;;12.90;99.90;;;;;;7288268;19;20203;-80
2024/03/16 10:25:10;;;;;;;3.83;0.90;;;13.10;99.90;;;;;;7290792;19;20225;-80
2024/03/16 10:27:38;;;;;;;4.23;0.90;;;13.10;99.90;;;;;;7290204;19;20179;-81
2024/03/16 10:30:12;;;;;;;4.33;0.90;;;13.20;99.90;;;;;;7289769;19;20195;-81
2024/03/16 10:32:41;;;;;;;3.30;1.00;;;13.30;99.90;;;;;;7289921;19;20242;-81
2024/03/16 10:35:14;;;;;;;11.73;1.27;;;13.30;99.90;;;;;;7288491;19;20197;-81
2024/03/16 10:37:42;;;;;;;4.00;0.93;;;13.70;99.90;;;;;;7290181;19;21070;-82
2024/03/16 10:40:18;;;;;;;2.83;1.00;;;14.00;99.90;;;;;;7290876;19;20257;-80
2024/03/16 10:42:45;;;;;;;3.97;0.97;;;14.30;99.90;;;;;;7290855;19;20221;-80
2024/03/16 10:45:16;;;;;;;4.87;0.90;;;14.40;99.90;;;;;;7289734;19;20669;-80
2024/03/16 10:47:43;;;;;;;5.10;0.80;;;14.20;99.90;;;;;;7289215;19;20906;-81
2024/03/16 10:50:12;;;;;;;4.97;1.03;;;14.30;99.90;;;;;;7290047;19;20189;-81
2024/03/16 10:52:41;;;;;;;5.77;1.23;;;14.00;99.90;;;;;;7290139;19;20263;-80
2024/03/16 10:55:22;;;;;;;5.70;1.60;;;13.60;99.90;;;;;;7290624;19;20192;-80
2024/03/16 10:57:49;;;;;;;4.43;1.33;;;13.50;99.90;;;;;;7288310;19;20198;-80
2024/03/16 11:00:29;;;;;;;5.80;1.10;;;13.50;99.90;;;;;;7289773;19;20182;-80
2024/03/16 11:03:09;;;;;;;8.20;1.30;;;13.50;99.90;;;;;;7186587;19;2005990;-80
2024/03/16 11:05:36;;;;;;;5.03;1.27;;;13.40;99.90;;;;;;7289294;19;20653;-80
2024/03/16 11:08:14;;;;;;;3.90;1.20;;;13.40;99.90;;;;;;7289275;19;20191;-80
2024/03/16 11:10:42;;;;;;;9.63;1.20;;;13.00;99.90;;;;;;7286345;19;20196;-80
2024/03/16 11:13:19;;;;;;;4.63;1.40;;;12.50;99.90;;;;;;7288442;19;20196;-83
2024/03/16 11:15:48;;;;;;;3.77;1.00;;;12.60;99.90;;;;;;7287363;19;20194;-80
2024/03/16 11:18:20;;;;;;;2.53;1.20;;;12.60;99.90;;;;;;7286835;19;20178;-80
2024/03/16 11:20:55;;;;;;;6.87;1.63;;;12.50;99.90;;;;;;7288171;19;20213;-80
2024/03/16 11:23:29;;;;;;;4.27;1.20;;;12.40;99.90;;;;;;7274863;19;20563;-79
2024/03/16 11:25:58;;;;;;;2.73;0.80;;;12.20;99.90;;;;;;7289938;19;20192;-80
2024/03/16 11:28:25;;;;;;;5.33;1.10;;;12.00;99.90;;;;;;7288011;19;20185;-80
2024/03/16 11:30:51;;;;;;;4.93;1.20;;;11.70;99.90;;;;;;7300558;19;20260;-80
2024/03/16 11:33:17;;;;;;;2.83;0.60;;;11.70;99.90;;;;;;7303474;19;20652;-80
2024/03/16 11:35:43;;;;;;;3.03;0.80;;;11.80;99.90;;;;;;7286288;19;20199;-80
2024/03/16 11:38:12;;;;;;;4.87;0.87;;;12.00;99.90;;;;;;7287416;19;20213;-80
2024/03/16 11:40:43;;;;;;;3.87;0.83;;;12.10;99.90;;;;;;7286476;19;20193;-80
2024/03/16 11:43:12;;;;;;;4.13;0.80;;;12.00;99.90;;;;;;7286786;19;20662;-80
2024/03/16 11:45:41;;;;;;;3.17;1.00;;;12.20;99.90;;;;;;7286779;19;20659;-80
2024/03/16 11:48:10;;;;;;;1.83;0.60;;;12.30;99.90;;;;;;7288137;19;20192;-80
2024/03/16 11:50:37;;;;;;;4.43;0.67;;;12.50;99.90;;;;;;7286871;19;20190;-80
2024/03/16 11:53:03;;;;;;;2.73;0.70;;;12.70;99.90;;;;;;7286175;19;20202;-80
2024/03/16 11:55:32;;;;;;;3.13;1.07;;;12.90;99.90;;;;;;7286435;19;20282;-80
2024/03/16 11:58:00;;;;;;;5.17;1.63;;;13.00;99.90;;;;;;7285016;19;20664;-80
2024/03/16 12:00:29;;;;;;;3.07;0.63;;;13.20;99.90;;;;;;7285689;19;20187;-80
2024/03/16 12:02:59;;;;;;;4.93;0.77;;;13.30;99.90;;;;;;7286585;19;20282;-80
2024/03/16 12:05:26;;;;;;;4.23;0.90;;;13.50;99.90;;;;;;7287020;19;20191;-80
2024/03/16 12:07:54;;;;;;;7.37;0.90;;;13.60;99.90;;;;;;7286540;19;20189;-80
2024/03/16 12:10:22;;;;;;;4.63;1.13;;;13.70;99.90;;;;;;7305873;19;20190;-81
2024/03/16 12:12:52;;;;;;;5.70;0.80;;;14.00;99.90;;;;;;7285115;19;20209;-81
2024/03/16 12:15:22;;;;;;;6.10;1.20;;;14.30;99.90;;;;;;7285072;19;20190;-81
2024/03/16 12:17:48;;;;;;;7.47;1.30;;;14.50;99.90;;;;;;7289783;19;20514;-81
2024/03/16 12:20:18;;;;;;;3.83;0.70;;;14.60;99.90;;;;;;7290160;19;20187;-81
2024/03/16 12:22:44;;;;;;;6.93;0.80;;;14.40;99.90;;;;;;7287436;19;20240;-81
2024/03/16 12:25:11;;;;;;;6.93;2.23;;;14.20;99.90;;;;;;7288885;19;21820;-81
2024/03/16 12:27:44;;;;;;;4.80;1.10;;;14.40;99.90;;;;;;7284425;19;20180;-81
2024/03/16 12:30:13;;;;;;;4.27;0.93;;;14.50;99.90;;;;;;7289810;19;20282;-81
2024/03/16 12:32:41;;;;;;;4.03;1.00;;;14.40;99.90;;;;;;7286701;19;20195;-81
2024/03/16 12:35:09;;;;;;;4.53;1.10;;;14.60;99.90;;;;;;7285663;19;20196;-81
2024/03/16 12:37:36;;;;;;;3.97;1.00;;;14.90;99.90;;;;;;7284446;19;20208;-81
2024/03/16 12:40:02;;;;;;;3.83;0.90;;;14.90;99.90;;;;;;7286282;19;20217;-81
2024/03/16 12:42:29;;;;;;;3.97;0.70;;;15.00;99.90;;;;;;7282705;19;20876;-80